sensor_id;sensor_type;location;lat;lon;timestamp;P1;durP1;ratioP1;P2;durP2;ratioP2
68225;SDS011;55045;49.410;11.030;2023-04-30T00:02:00;12.25;;;8.43;;
68225;SDS011;55045;49.410;11.030;2023-04-30T00:05:10;10.82;;;8.48;;
68225;SDS011;55045;49.410;11.030;2023-04-30T00:08:15;11.38;;;8.23;;
68225;SDS011;55045;49.410;11.030;2023-04-30T00:11:18;14.32;;;9.63;;
68225;SDS011;55045;49.410;11.030;2023-04-30T00:14:21;14.38;;;9.38;;
68225;SDS011;55045;49.410;11.030;2023-04-30T00:17:24;15.45;;;8.48;;
68225;SDS011;55045;49.410;11.030;2023-04-30T00:20:28;11.57;;;8.80;;
68225;SDS011;55045;49.410;11.030;2023-04-30T00:23:32;12.38;;;8.50;;
68225;SDS011;55045;49.410;11.030;2023-04-30T00:26:35;12.75;;;9.18;;
68225;SDS011;55045;49.410;11.030;2023-04-30T00:29:39;11.68;;;8.30;;
68225;SDS011;55045;49.410;11.030;2023-04-30T00:32:42;15.30;;;8.13;;
68225;SDS011;55045;49.410;11.030;2023-04-30T00:35:46;15.23;;;8.52;;
68225;SDS011;55045;49.410;11.030;2023-04-30T00:38:51;11.00;;;7.43;;
68225;SDS011;55045;49.410;11.030;2023-04-30T00:41:54;10.52;;;7.60;;
68225;SDS011;55045;49.410;11.030;2023-04-30T00:44:57;14.35;;;9.43;;
68225;SDS011;55045;49.410;11.030;2023-04-30T00:48:00;12.43;;;8.55;;
68225;SDS011;55045;49.410;11.030;2023-04-30T00:51:04;12.48;;;9.32;;
68225;SDS011;55045;49.410;11.030;2023-04-30T00:54:09;10.55;;;7.93;;
68225;SDS011;55045;49.410;11.030;2023-04-30T00:57:13;11.15;;;8.20;;
68225;SDS011;55045;49.410;11.030;2023-04-30T01:00:17;13.55;;;9.00;;
68225;SDS011;55045;49.410;11.030;2023-04-30T01:03:21;12.48;;;8.25;;
68225;SDS011;55045;49.410;11.030;2023-04-30T01:06:25;13.52;;;9.05;;
68225;SDS011;55045;49.410;11.030;2023-04-30T01:09:30;16.38;;;9.85;;
68225;SDS011;55045;49.410;11.030;2023-04-30T01:12:35;12.13;;;9.20;;
68225;SDS011;55045;49.410;11.030;2023-04-30T01:15:46;12.15;;;9.43;;
68225;SDS011;55045;49.410;11.030;2023-04-30T01:19:03;15.40;;;9.88;;
68225;SDS011;55045;49.410;11.030;2023-04-30T01:22:13;12.07;;;8.52;;
68225;SDS011;55045;49.410;11.030;2023-04-30T01:25:42;11.68;;;7.75;;
68225;SDS011;55045;49.410;11.030;2023-04-30T01:28:54;13.05;;;9.48;;
68225;SDS011;55045;49.410;11.030;2023-04-30T01:32:01;14.82;;;10.05;;
68225;SDS011;55045;49.410;11.030;2023-04-30T01:35:08;11.93;;;8.80;;
68225;SDS011;55045;49.410;11.030;2023-04-30T01:38:14;13.45;;;9.90;;
68225;SDS011;55045;49.410;11.030;2023-04-30T01:41:30;14.90;;;10.52;;
68225;SDS011;55045;49.410;11.030;2023-04-30T01:44:42;14.05;;;9.90;;
68225;SDS011;55045;49.410;11.030;2023-04-30T01:51:23;15.27;;;10.80;;
68225;SDS011;55045;49.410;11.030;2023-04-30T01:54:34;13.45;;;10.43;;
68225;SDS011;55045;49.410;11.030;2023-04-30T01:57:46;19.63;;;10.70;;
68225;SDS011;55045;49.410;11.030;2023-04-30T02:00:58;14.45;;;11.02;;
68225;SDS011;55045;49.410;11.030;2023-04-30T02:04:02;14.63;;;10.60;;
68225;SDS011;55045;49.410;11.030;2023-04-30T02:07:05;13.27;;;10.13;;
68225;SDS011;55045;49.410;11.030;2023-04-30T02:10:09;17.08;;;10.55;;
68225;SDS011;55045;49.410;11.030;2023-04-30T02:13:13;15.30;;;10.07;;
68225;SDS011;55045;49.410;11.030;2023-04-30T02:16:18;14.45;;;10.00;;
68225;SDS011;55045;49.410;11.030;2023-04-30T02:19:21;13.65;;;9.40;;
68225;SDS011;55045;49.410;11.030;2023-04-30T02:22:25;15.48;;;10.52;;
68225;SDS011;55045;49.410;11.030;2023-04-30T02:25:28;16.20;;;11.23;;
68225;SDS011;55045;49.410;11.030;2023-04-30T02:28:31;15.68;;;10.27;;
68225;SDS011;55045;49.410;11.030;2023-04-30T02:31:36;14.77;;;10.48;;
68225;SDS011;55045;49.410;11.030;2023-04-30T02:34:42;17.13;;;11.07;;
68225;SDS011;55045;49.410;11.030;2023-04-30T02:37:45;18.38;;;11.32;;
68225;SDS011;55045;49.410;11.030;2023-04-30T02:40:48;15.13;;;11.38;;
68225;SDS011;55045;49.410;11.030;2023-04-30T02:43:51;16.65;;;11.57;;
68225;SDS011;55045;49.410;11.030;2023-04-30T02:46:56;15.27;;;11.63;;
68225;SDS011;55045;49.410;11.030;2023-04-30T02:49:59;15.63;;;11.05;;
68225;SDS011;55045;49.410;11.030;2023-04-30T02:53:02;16.33;;;11.23;;
68225;SDS011;55045;49.410;11.030;2023-04-30T02:56:06;19.33;;;12.27;;
68225;SDS011;55045;49.410;11.030;2023-04-30T02:59:10;20.23;;;13.27;;
68225;SDS011;55045;49.410;11.030;2023-04-30T03:02:15;19.10;;;13.13;;
68225;SDS011;55045;49.410;11.030;2023-04-30T03:05:22;14.88;;;10.90;;
68225;SDS011;55045;49.410;11.030;2023-04-30T03:08:26;16.50;;;12.95;;
68225;SDS011;55045;49.410;11.030;2023-04-30T03:11:29;18.33;;;14.05;;
68225;SDS011;55045;49.410;11.030;2023-04-30T03:14:33;18.40;;;13.75;;
68225;SDS011;55045;49.410;11.030;2023-04-30T03:17:37;16.05;;;12.05;;
68225;SDS011;55045;49.410;11.030;2023-04-30T03:20:40;18.05;;;13.38;;
68225;SDS011;55045;49.410;11.030;2023-04-30T03:23:44;16.52;;;12.68;;
68225;SDS011;55045;49.410;11.030;2023-04-30T03:26:47;15.13;;;11.77;;
68225;SDS011;55045;49.410;11.030;2023-04-30T03:29:52;15.05;;;11.85;;
68225;SDS011;55045;49.410;11.030;2023-04-30T03:34:46;18.25;;;13.07;;
68225;SDS011;55045;49.410;11.030;2023-04-30T03:37:49;15.32;;;12.05;;
68225;SDS011;55045;49.410;11.030;2023-04-30T03:40:52;17.00;;;14.00;;
68225;SDS011;55045;49.410;11.030;2023-04-30T03:43:56;14.55;;;11.50;;
68225;SDS011;55045;49.410;11.030;2023-04-30T03:46:59;16.85;;;13.45;;
68225;SDS011;55045;49.410;11.030;2023-04-30T03:50:09;17.40;;;13.90;;
68225;SDS011;55045;49.410;11.030;2023-04-30T03:53:13;20.08;;;14.43;;
68225;SDS011;55045;49.410;11.030;2023-04-30T03:56:16;18.55;;;14.82;;
68225;SDS011;55045;49.410;11.030;2023-04-30T03:59:19;17.95;;;14.13;;
68225;SDS011;55045;49.410;11.030;2023-04-30T04:02:23;17.00;;;12.68;;
68225;SDS011;55045;49.410;11.030;2023-04-30T04:05:29;16.35;;;12.48;;
68225;SDS011;55045;49.410;11.030;2023-04-30T04:08:32;19.67;;;13.15;;
68225;SDS011;55045;49.410;11.030;2023-04-30T04:11:37;17.05;;;13.15;;
68225;SDS011;55045;49.410;11.030;2023-04-30T04:14:40;19.02;;;12.52;;
68225;SDS011;55045;49.410;11.030;2023-04-30T04:17:43;19.92;;;14.13;;
68225;SDS011;55045;49.410;11.030;2023-04-30T04:20:48;18.55;;;13.00;;
68225;SDS011;55045;49.410;11.030;2023-04-30T04:23:51;18.67;;;13.05;;
68225;SDS011;55045;49.410;11.030;2023-04-30T04:26:56;17.88;;;13.38;;
68225;SDS011;55045;49.410;11.030;2023-04-30T04:30:00;16.35;;;12.82;;
68225;SDS011;55045;49.410;11.030;2023-04-30T04:33:04;16.38;;;11.52;;
68225;SDS011;55045;49.410;11.030;2023-04-30T04:36:10;16.77;;;11.57;;
68225;SDS011;55045;49.410;11.030;2023-04-30T04:39:13;20.05;;;12.55;;
68225;SDS011;55045;49.410;11.030;2023-04-30T04:42:16;18.23;;;12.10;;
68225;SDS011;55045;49.410;11.030;2023-04-30T04:45:20;18.88;;;13.52;;
68225;SDS011;55045;49.410;11.030;2023-04-30T04:48:24;18.42;;;13.13;;
68225;SDS011;55045;49.410;11.030;2023-04-30T04:51:29;17.23;;;13.07;;
68225;SDS011;55045;49.410;11.030;2023-04-30T04:54:32;18.40;;;12.50;;
68225;SDS011;55045;49.410;11.030;2023-04-30T04:57:36;23.70;;;13.45;;
68225;SDS011;55045;49.410;11.030;2023-04-30T05:00:39;21.45;;;13.38;;
68225;SDS011;55045;49.410;11.030;2023-04-30T05:03:42;15.35;;;11.80;;
68225;SDS011;55045;49.410;11.030;2023-04-30T05:06:47;20.52;;;13.10;;
68225;SDS011;55045;49.410;11.030;2023-04-30T05:09:50;19.38;;;12.95;;
68225;SDS011;55045;49.410;11.030;2023-04-30T05:12:54;17.30;;;12.80;;
68225;SDS011;55045;49.410;11.030;2023-04-30T05:15:57;21.50;;;13.00;;
68225;SDS011;55045;49.410;11.030;2023-04-30T05:19:00;17.63;;;12.43;;
68225;SDS011;55045;49.410;11.030;2023-04-30T05:22:05;18.17;;;12.65;;
68225;SDS011;55045;49.410;11.030;2023-04-30T05:25:08;19.15;;;13.15;;
68225;SDS011;55045;49.410;11.030;2023-04-30T05:28:11;19.05;;;13.40;;
68225;SDS011;55045;49.410;11.030;2023-04-30T05:31:15;17.40;;;12.27;;
68225;SDS011;55045;49.410;11.030;2023-04-30T05:34:21;20.30;;;13.35;;
68225;SDS011;55045;49.410;11.030;2023-04-30T05:37:26;19.40;;;12.77;;
68225;SDS011;55045;49.410;11.030;2023-04-30T05:40:29;21.95;;;13.98;;
68225;SDS011;55045;49.410;11.030;2023-04-30T05:43:32;17.05;;;12.60;;
68225;SDS011;55045;49.410;11.030;2023-04-30T05:46:35;20.58;;;13.50;;
68225;SDS011;55045;49.410;11.030;2023-04-30T05:49:38;18.35;;;13.45;;
68225;SDS011;55045;49.410;11.030;2023-04-30T05:52:43;18.13;;;13.25;;
68225;SDS011;55045;49.410;11.030;2023-04-30T05:55:46;17.45;;;12.60;;
68225;SDS011;55045;49.410;11.030;2023-04-30T05:58:49;16.38;;;11.00;;
68225;SDS011;55045;49.410;11.030;2023-04-30T06:01:53;17.20;;;12.80;;
68225;SDS011;55045;49.410;11.030;2023-04-30T06:04:56;17.67;;;12.70;;
68225;SDS011;55045;49.410;11.030;2023-04-30T06:08:01;16.20;;;11.07;;
68225;SDS011;55045;49.410;11.030;2023-04-30T06:11:04;13.75;;;11.60;;
68225;SDS011;55045;49.410;11.030;2023-04-30T06:14:08;16.38;;;11.70;;
68225;SDS011;55045;49.410;11.030;2023-04-30T06:17:11;19.42;;;12.02;;
68225;SDS011;55045;49.410;11.030;2023-04-30T06:20:16;19.80;;;12.32;;
68225;SDS011;55045;49.410;11.030;2023-04-30T06:23:21;16.05;;;11.23;;
68225;SDS011;55045;49.410;11.030;2023-04-30T06:26:24;14.48;;;11.30;;
68225;SDS011;55045;49.410;11.030;2023-04-30T06:29:27;18.92;;;11.95;;
68225;SDS011;55045;49.410;11.030;2023-04-30T06:32:30;15.20;;;12.05;;
68225;SDS011;55045;49.410;11.030;2023-04-30T06:35:34;13.20;;;10.40;;
68225;SDS011;55045;49.410;11.030;2023-04-30T06:38:38;16.17;;;10.65;;
68225;SDS011;55045;49.410;11.030;2023-04-30T06:41:42;14.63;;;11.85;;
68225;SDS011;55045;49.410;11.030;2023-04-30T06:44:45;12.93;;;10.90;;
68225;SDS011;55045;49.410;11.030;2023-04-30T06:47:48;14.23;;;9.90;;
68225;SDS011;55045;49.410;11.030;2023-04-30T06:50:52;14.50;;;10.10;;
68225;SDS011;55045;49.410;11.030;2023-04-30T06:53:57;14.40;;;10.70;;
68225;SDS011;55045;49.410;11.030;2023-04-30T06:57:00;17.02;;;10.98;;
68225;SDS011;55045;49.410;11.030;2023-04-30T07:00:04;14.30;;;10.35;;
68225;SDS011;55045;49.410;11.030;2023-04-30T07:03:08;14.00;;;9.57;;
68225;SDS011;55045;49.410;11.030;2023-04-30T07:06:11;13.77;;;10.15;;
68225;SDS011;55045;49.410;11.030;2023-04-30T07:09:16;14.75;;;10.05;;
68225;SDS011;55045;49.410;11.030;2023-04-30T07:12:19;10.95;;;9.20;;
68225;SDS011;55045;49.410;11.030;2023-04-30T07:15:23;13.18;;;9.00;;
68225;SDS011;55045;49.410;11.030;2023-04-30T07:18:26;11.75;;;8.68;;
68225;SDS011;55045;49.410;11.030;2023-04-30T07:21:29;14.48;;;10.25;;
68225;SDS011;55045;49.410;11.030;2023-04-30T07:24:34;10.30;;;9.20;;
68225;SDS011;55045;49.410;11.030;2023-04-30T07:27:38;12.25;;;9.07;;
68225;SDS011;55045;49.410;11.030;2023-04-30T07:30:41;10.60;;;8.00;;
68225;SDS011;55045;49.410;11.030;2023-04-30T07:33:44;12.30;;;8.27;;
68225;SDS011;55045;49.410;11.030;2023-04-30T07:36:48;10.68;;;7.88;;
68225;SDS011;55045;49.410;11.030;2023-04-30T07:39:52;13.05;;;9.23;;
68225;SDS011;55045;49.410;11.030;2023-04-30T07:42:56;9.98;;;8.70;;
68225;SDS011;55045;49.410;11.030;2023-04-30T07:45:59;11.73;;;9.52;;
68225;SDS011;55045;49.410;11.030;2023-04-30T07:49:03;9.82;;;8.00;;
68225;SDS011;55045;49.410;11.030;2023-04-30T07:52:06;10.25;;;8.00;;
68225;SDS011;55045;49.410;11.030;2023-04-30T07:55:13;12.45;;;7.35;;
68225;SDS011;55045;49.410;11.030;2023-04-30T07:58:16;10.30;;;7.00;;
68225;SDS011;55045;49.410;11.030;2023-04-30T08:01:19;8.50;;;6.70;;
68225;SDS011;55045;49.410;11.030;2023-04-30T08:04:22;8.13;;;6.32;;
68225;SDS011;55045;49.410;11.030;2023-04-30T08:07:26;7.05;;;6.35;;
68225;SDS011;55045;49.410;11.030;2023-04-30T08:10:31;8.13;;;6.95;;
68225;SDS011;55045;49.410;11.030;2023-04-30T08:13:34;7.35;;;6.65;;
68225;SDS011;55045;49.410;11.030;2023-04-30T08:16:38;9.25;;;6.28;;
68225;SDS011;55045;49.410;11.030;2023-04-30T08:19:41;10.70;;;6.35;;
68225;SDS011;55045;49.410;11.030;2023-04-30T08:22:45;8.52;;;6.35;;
68225;SDS011;55045;49.410;11.030;2023-04-30T08:25:50;7.82;;;5.93;;
68225;SDS011;55045;49.410;11.030;2023-04-30T08:28:53;8.05;;;6.60;;
68225;SDS011;55045;49.410;11.030;2023-04-30T08:31:57;6.32;;;5.50;;
68225;SDS011;55045;49.410;11.030;2023-04-30T08:35:09;8.00;;;6.10;;
68225;SDS011;55045;49.410;11.030;2023-04-30T08:38:12;7.15;;;5.78;;
68225;SDS011;55045;49.410;11.030;2023-04-30T08:41:17;6.28;;;5.45;;
68225;SDS011;55045;49.410;11.030;2023-04-30T08:44:24;7.35;;;5.05;;
68225;SDS011;55045;49.410;11.030;2023-04-30T08:47:29;6.20;;;4.45;;
68225;SDS011;55045;49.410;11.030;2023-04-30T08:50:33;4.78;;;3.85;;
68225;SDS011;55045;49.410;11.030;2023-04-30T08:53:36;6.55;;;5.30;;
68225;SDS011;55045;49.410;11.030;2023-04-30T08:56:41;7.00;;;4.95;;
68225;SDS011;55045;49.410;11.030;2023-04-30T08:59:45;6.80;;;5.50;;
68225;SDS011;55045;49.410;11.030;2023-04-30T09:02:48;4.40;;;4.00;;
68225;SDS011;55045;49.410;11.030;2023-04-30T09:05:52;6.45;;;4.57;;
68225;SDS011;55045;49.410;11.030;2023-04-30T09:08:55;4.90;;;4.40;;
68225;SDS011;55045;49.410;11.030;2023-04-30T09:12:13;4.68;;;4.15;;
68225;SDS011;55045;49.410;11.030;2023-04-30T09:15:20;6.40;;;4.35;;
68225;SDS011;55045;49.410;11.030;2023-04-30T09:18:24;5.50;;;4.60;;
68225;SDS011;55045;49.410;11.030;2023-04-30T09:21:30;5.68;;;5.00;;
68225;SDS011;55045;49.410;11.030;2023-04-30T09:24:44;6.85;;;4.50;;
68225;SDS011;55045;49.410;11.030;2023-04-30T09:27:49;4.32;;;3.92;;
68225;SDS011;55045;49.410;11.030;2023-04-30T09:34:45;8.52;;;4.20;;
68225;SDS011;55045;49.410;11.030;2023-04-30T09:37:48;5.03;;;4.20;;
68225;SDS011;55045;49.410;11.030;2023-04-30T09:40:52;5.53;;;3.72;;
68225;SDS011;55045;49.410;11.030;2023-04-30T09:43:57;4.68;;;3.58;;
68225;SDS011;55045;49.410;11.030;2023-04-30T09:47:00;3.55;;;3.13;;
68225;SDS011;55045;49.410;11.030;2023-04-30T09:50:10;4.40;;;3.30;;
68225;SDS011;55045;49.410;11.030;2023-04-30T09:53:15;3.67;;;3.20;;
68225;SDS011;55045;49.410;11.030;2023-04-30T09:56:20;4.20;;;3.80;;
68225;SDS011;55045;49.410;11.030;2023-04-30T09:59:26;6.18;;;4.10;;
68225;SDS011;55045;49.410;11.030;2023-04-30T10:02:32;4.57;;;3.80;;
68225;SDS011;55045;49.410;11.030;2023-04-30T10:05:38;4.63;;;3.50;;
68225;SDS011;55045;49.410;11.030;2023-04-30T10:08:45;5.75;;;3.70;;
68225;SDS011;55045;49.410;11.030;2023-04-30T10:11:49;4.43;;;3.70;;
68225;SDS011;55045;49.410;11.030;2023-04-30T10:14:54;4.72;;;3.40;;
68225;SDS011;55045;49.410;11.030;2023-04-30T10:18:00;5.68;;;3.90;;
68225;SDS011;55045;49.410;11.030;2023-04-30T10:21:08;3.50;;;3.20;;
68225;SDS011;55045;49.410;11.030;2023-04-30T10:24:17;3.78;;;3.47;;
68225;SDS011;55045;49.410;11.030;2023-04-30T10:27:21;5.93;;;3.40;;
68225;SDS011;55045;49.410;11.030;2023-04-30T10:30:25;4.07;;;3.55;;
68225;SDS011;55045;49.410;11.030;2023-04-30T10:33:30;4.30;;;3.88;;
68225;SDS011;55045;49.410;11.030;2023-04-30T10:36:43;8.15;;;4.38;;
68225;SDS011;55045;49.410;11.030;2023-04-30T10:39:49;4.97;;;3.58;;
68225;SDS011;55045;49.410;11.030;2023-04-30T10:42:53;4.13;;;3.25;;
68225;SDS011;55045;49.410;11.030;2023-04-30T10:45:57;4.60;;;3.92;;
68225;SDS011;55045;49.410;11.030;2023-04-30T10:49:01;4.35;;;3.83;;
68225;SDS011;55045;49.410;11.030;2023-04-30T10:52:06;6.20;;;3.78;;
68225;SDS011;55045;49.410;11.030;2023-04-30T10:55:09;3.60;;;3.30;;
68225;SDS011;55045;49.410;11.030;2023-04-30T10:58:22;3.63;;;3.33;;
68225;SDS011;55045;49.410;11.030;2023-04-30T11:01:28;4.50;;;3.67;;
68225;SDS011;55045;49.410;11.030;2023-04-30T11:04:31;3.60;;;3.25;;
68225;SDS011;55045;49.410;11.030;2023-04-30T11:07:36;3.70;;;3.40;;
68225;SDS011;55045;49.410;11.030;2023-04-30T11:10:55;5.50;;;3.65;;
68225;SDS011;55045;49.410;11.030;2023-04-30T11:14:01;3.88;;;3.03;;
68225;SDS011;55045;49.410;11.030;2023-04-30T11:17:04;4.43;;;3.50;;
68225;SDS011;55045;49.410;11.030;2023-04-30T11:20:10;3.90;;;3.15;;
68225;SDS011;55045;49.410;11.030;2023-04-30T11:23:16;4.90;;;3.25;;
68225;SDS011;55045;49.410;11.030;2023-04-30T11:30:10;6.57;;;2.80;;
68225;SDS011;55045;49.410;11.030;2023-04-30T11:33:15;3.55;;;2.72;;
68225;SDS011;55045;49.410;11.030;2023-04-30T11:36:19;2.50;;;2.30;;
68225;SDS011;55045;49.410;11.030;2023-04-30T11:39:24;2.75;;;2.55;;
68225;SDS011;55045;49.410;11.030;2023-04-30T11:42:30;2.97;;;2.60;;
68225;SDS011;55045;49.410;11.030;2023-04-30T11:45:35;3.60;;;2.58;;
68225;SDS011;55045;49.410;11.030;2023-04-30T11:48:42;2.65;;;2.30;;
68225;SDS011;55045;49.410;11.030;2023-04-30T11:51:47;2.40;;;2.20;;
68225;SDS011;55045;49.410;11.030;2023-04-30T11:54:54;4.15;;;2.75;;
68225;SDS011;55045;49.410;11.030;2023-04-30T11:57:59;2.92;;;2.38;;
68225;SDS011;55045;49.410;11.030;2023-04-30T12:01:02;3.22;;;2.28;;
68225;SDS011;55045;49.410;11.030;2023-04-30T12:04:07;3.35;;;2.88;;
68225;SDS011;55045;49.410;11.030;2023-04-30T12:07:10;3.58;;;2.90;;
68225;SDS011;55045;49.410;11.030;2023-04-30T12:10:16;3.53;;;2.90;;
68225;SDS011;55045;49.410;11.030;2023-04-30T12:13:21;3.00;;;2.70;;
68225;SDS011;55045;49.410;11.030;2023-04-30T12:16:27;2.45;;;2.25;;
68225;SDS011;55045;49.410;11.030;2023-04-30T12:19:40;2.92;;;2.22;;
68225;SDS011;55045;49.410;11.030;2023-04-30T12:22:44;6.28;;;2.30;;
68225;SDS011;55045;49.410;11.030;2023-04-30T12:25:49;3.00;;;2.70;;
68225;SDS011;55045;49.410;11.030;2023-04-30T12:28:53;3.85;;;2.65;;
68225;SDS011;55045;49.410;11.030;2023-04-30T12:31:57;5.03;;;2.22;;
68225;SDS011;55045;49.410;11.030;2023-04-30T12:35:08;3.53;;;2.38;;
68225;SDS011;55045;49.410;11.030;2023-04-30T12:38:16;2.53;;;2.33;;
68225;SDS011;55045;49.410;11.030;2023-04-30T12:41:22;3.60;;;2.53;;
68225;SDS011;55045;49.410;11.030;2023-04-30T12:44:26;2.67;;;2.17;;
68225;SDS011;55045;49.410;11.030;2023-04-30T12:47:30;3.90;;;2.15;;
68225;SDS011;55045;49.410;11.030;2023-04-30T12:50:33;2.30;;;2.10;;
68225;SDS011;55045;49.410;11.030;2023-04-30T12:53:43;4.20;;;2.10;;
68225;SDS011;55045;49.410;11.030;2023-04-30T12:56:56;3.40;;;2.45;;
68225;SDS011;55045;49.410;11.030;2023-04-30T13:00:02;2.60;;;2.40;;
68225;SDS011;55045;49.410;11.030;2023-04-30T13:03:06;3.83;;;2.50;;
68225;SDS011;55045;49.410;11.030;2023-04-30T13:06:10;2.55;;;2.30;;
68225;SDS011;55045;49.410;11.030;2023-04-30T13:09:13;2.35;;;2.22;;
68225;SDS011;55045;49.410;11.030;2023-04-30T13:12:18;4.72;;;2.20;;
68225;SDS011;55045;49.410;11.030;2023-04-30T13:15:21;3.35;;;2.40;;
68225;SDS011;55045;49.410;11.030;2023-04-30T13:18:25;2.28;;;2.17;;
68225;SDS011;55045;49.410;11.030;2023-04-30T13:21:28;3.00;;;2.15;;
68225;SDS011;55045;49.410;11.030;2023-04-30T13:24:31;2.63;;;2.42;;
68225;SDS011;55045;49.410;11.030;2023-04-30T13:27:36;2.92;;;2.40;;
68225;SDS011;55045;49.410;11.030;2023-04-30T13:30:40;2.70;;;2.50;;
68225;SDS011;55045;49.410;11.030;2023-04-30T13:33:43;2.83;;;2.28;;
68225;SDS011;55045;49.410;11.030;2023-04-30T13:36:46;5.40;;;2.50;;
68225;SDS011;55045;49.410;11.030;2023-04-30T13:39:50;6.53;;;2.50;;
68225;SDS011;55045;49.410;11.030;2023-04-30T13:42:54;3.00;;;2.50;;
68225;SDS011;55045;49.410;11.030;2023-04-30T13:45:58;12.85;;;9.85;;
68225;SDS011;55045;49.410;11.030;2023-04-30T13:49:01;3.70;;;2.97;;
68225;SDS011;55045;49.410;11.030;2023-04-30T13:52:04;2.40;;;2.20;;
68225;SDS011;55045;49.410;11.030;2023-04-30T13:55:08;2.85;;;2.50;;
68225;SDS011;55045;49.410;11.030;2023-04-30T13:58:12;2.60;;;2.40;;
68225;SDS011;55045;49.410;11.030;2023-04-30T14:01:16;2.92;;;2.58;;
68225;SDS011;55045;49.410;11.030;2023-04-30T14:04:19;3.75;;;2.92;;
68225;SDS011;55045;49.410;11.030;2023-04-30T14:07:22;3.05;;;2.10;;
68225;SDS011;55045;49.410;11.030;2023-04-30T14:10:26;2.40;;;2.20;;
68225;SDS011;55045;49.410;11.030;2023-04-30T14:13:30;2.50;;;2.30;;
68225;SDS011;55045;49.410;11.030;2023-04-30T14:16:34;2.58;;;2.38;;
68225;SDS011;55045;49.410;11.030;2023-04-30T14:19:37;2.97;;;2.40;;
68225;SDS011;55045;49.410;11.030;2023-04-30T14:22:40;3.28;;;2.40;;
68225;SDS011;55045;49.410;11.030;2023-04-30T14:25:44;3.10;;;2.10;;
68225;SDS011;55045;49.410;11.030;2023-04-30T14:28:48;2.33;;;2.10;;
68225;SDS011;55045;49.410;11.030;2023-04-30T14:31:52;2.22;;;2.03;;
68225;SDS011;55045;49.410;11.030;2023-04-30T14:34:55;2.35;;;2.15;;
68225;SDS011;55045;49.410;11.030;2023-04-30T14:37:58;2.30;;;2.15;;
68225;SDS011;55045;49.410;11.030;2023-04-30T14:41:01;2.40;;;2.20;;
68225;SDS011;55045;49.410;11.030;2023-04-30T14:44:06;2.53;;;2.20;;
68225;SDS011;55045;49.410;11.030;2023-04-30T14:47:09;3.17;;;2.30;;
68225;SDS011;55045;49.410;11.030;2023-04-30T14:50:13;2.30;;;2.10;;
68225;SDS011;55045;49.410;11.030;2023-04-30T14:53:16;2.17;;;2.08;;
68225;SDS011;55045;49.410;11.030;2023-04-30T14:56:20;2.50;;;2.30;;
68225;SDS011;55045;49.410;11.030;2023-04-30T14:59:24;3.88;;;2.28;;
68225;SDS011;55045;49.410;11.030;2023-04-30T15:02:28;2.30;;;1.95;;
68225;SDS011;55045;49.410;11.030;2023-04-30T15:05:32;5.00;;;1.83;;
68225;SDS011;55045;49.410;11.030;2023-04-30T15:08:35;2.95;;;1.92;;
68225;SDS011;55045;49.410;11.030;2023-04-30T15:11:38;1.98;;;1.70;;
68225;SDS011;55045;49.410;11.030;2023-04-30T15:14:42;3.22;;;1.60;;
68225;SDS011;55045;49.410;11.030;2023-04-30T15:17:46;2.72;;;1.60;;
68225;SDS011;55045;49.410;11.030;2023-04-30T15:20:49;2.15;;;1.77;;
68225;SDS011;55045;49.410;11.030;2023-04-30T15:23:52;2.40;;;2.15;;
68225;SDS011;55045;49.410;11.030;2023-04-30T15:26:55;2.60;;;2.28;;
68225;SDS011;55045;49.410;11.030;2023-04-30T15:30:00;2.72;;;2.25;;
68225;SDS011;55045;49.410;11.030;2023-04-30T15:34:45;2.33;;;2.13;;
68225;SDS011;55045;49.410;11.030;2023-04-30T15:37:49;3.58;;;2.15;;
68225;SDS011;55045;49.410;11.030;2023-04-30T15:40:52;3.75;;;2.38;;
68225;SDS011;55045;49.410;11.030;2023-04-30T15:43:55;2.47;;;2.28;;
68225;SDS011;55045;49.410;11.030;2023-04-30T15:46:59;2.20;;;2.00;;
68225;SDS011;55045;49.410;11.030;2023-04-30T15:50:10;2.83;;;2.08;;
68225;SDS011;55045;49.410;11.030;2023-04-30T15:53:13;2.22;;;2.00;;
68225;SDS011;55045;49.410;11.030;2023-04-30T15:56:16;3.20;;;2.28;;
68225;SDS011;55045;49.410;11.030;2023-04-30T15:59:21;2.25;;;1.90;;
68225;SDS011;55045;49.410;11.030;2023-04-30T16:02:24;4.40;;;2.00;;
68225;SDS011;55045;49.410;11.030;2023-04-30T16:05:29;1.88;;;1.77;;
68225;SDS011;55045;49.410;11.030;2023-04-30T16:08:32;2.65;;;2.00;;
68225;SDS011;55045;49.410;11.030;2023-04-30T16:11:35;3.30;;;2.20;;
68225;SDS011;55045;49.410;11.030;2023-04-30T16:14:40;2.03;;;1.92;;
68225;SDS011;55045;49.410;11.030;2023-04-30T16:17:44;2.20;;;2.00;;
68225;SDS011;55045;49.410;11.030;2023-04-30T16:20:48;3.80;;;2.20;;
68225;SDS011;55045;49.410;11.030;2023-04-30T16:23:52;2.03;;;1.90;;
68225;SDS011;55045;49.410;11.030;2023-04-30T16:26:55;5.90;;;2.35;;
68225;SDS011;55045;49.410;11.030;2023-04-30T16:29:58;1.80;;;1.70;;
68225;SDS011;55045;49.410;11.030;2023-04-30T16:33:02;2.10;;;1.90;;
68225;SDS011;55045;49.410;11.030;2023-04-30T16:36:07;2.50;;;1.92;;
68225;SDS011;55045;49.410;11.030;2023-04-30T16:39:11;3.30;;;1.85;;
68225;SDS011;55045;49.410;11.030;2023-04-30T16:42:18;3.15;;;1.75;;
68225;SDS011;55045;49.410;11.030;2023-04-30T16:45:21;1.63;;;1.52;;
68225;SDS011;55045;49.410;11.030;2023-04-30T16:48:24;2.40;;;2.20;;
68225;SDS011;55045;49.410;11.030;2023-04-30T16:51:30;2.50;;;2.30;;
68225;SDS011;55045;49.410;11.030;2023-04-30T16:54:34;2.60;;;2.00;;
68225;SDS011;55045;49.410;11.030;2023-04-30T16:57:37;7.03;;;2.22;;
68225;SDS011;55045;49.410;11.030;2023-04-30T17:00:40;2.20;;;2.00;;
68225;SDS011;55045;49.410;11.030;2023-04-30T17:03:43;2.25;;;2.05;;
68225;SDS011;55045;49.410;11.030;2023-04-30T17:06:48;2.33;;;2.13;;
68225;SDS011;55045;49.410;11.030;2023-04-30T17:09:52;4.35;;;2.88;;
68225;SDS011;55045;49.410;11.030;2023-04-30T17:12:56;2.20;;;2.00;;
68225;SDS011;55045;49.410;11.030;2023-04-30T17:16:00;1.80;;;1.70;;
68225;SDS011;55045;49.410;11.030;2023-04-30T17:19:03;2.42;;;1.70;;
68225;SDS011;55045;49.410;11.030;2023-04-30T17:22:08;2.42;;;1.73;;
68225;SDS011;55045;49.410;11.030;2023-04-30T17:25:13;2.80;;;2.20;;
68225;SDS011;55045;49.410;11.030;2023-04-30T17:28:17;4.05;;;2.13;;
68225;SDS011;55045;49.410;11.030;2023-04-30T17:31:20;3.83;;;2.88;;
68225;SDS011;55045;49.410;11.030;2023-04-30T17:34:24;2.35;;;1.83;;
68225;SDS011;55045;49.410;11.030;2023-04-30T17:37:30;3.40;;;2.20;;
68225;SDS011;55045;49.410;11.030;2023-04-30T17:40:33;2.63;;;2.35;;
68225;SDS011;55045;49.410;11.030;2023-04-30T17:43:37;3.90;;;2.78;;
68225;SDS011;55045;49.410;11.030;2023-04-30T17:46:40;7.28;;;4.65;;
68225;SDS011;55045;49.410;11.030;2023-04-30T17:49:44;4.38;;;3.00;;
68225;SDS011;55045;49.410;11.030;2023-04-30T17:52:49;2.20;;;2.00;;
68225;SDS011;55045;49.410;11.030;2023-04-30T17:55:53;2.33;;;1.85;;
68225;SDS011;55045;49.410;11.030;2023-04-30T17:58:56;3.60;;;2.33;;
68225;SDS011;55045;49.410;11.030;2023-04-30T18:02:00;2.15;;;1.80;;
68225;SDS011;55045;49.410;11.030;2023-04-30T18:05:10;1.85;;;1.60;;
68225;SDS011;55045;49.410;11.030;2023-04-30T18:08:14;3.15;;;1.80;;
68225;SDS011;55045;49.410;11.030;2023-04-30T18:11:17;2.08;;;1.80;;
68225;SDS011;55045;49.410;11.030;2023-04-30T18:14:21;3.70;;;1.88;;
68225;SDS011;55045;49.410;11.030;2023-04-30T18:17:24;3.08;;;1.80;;
68225;SDS011;55045;49.410;11.030;2023-04-30T18:20:28;2.17;;;1.83;;